sensor_id;sensor_type;location;lat;lon;timestamp;temperature;humidity
44731;DHT22;30458;47.448;19.032;2023-07-09T00:04:28;20.40;95.60
44731;DHT22;30458;47.448;19.032;2023-07-09T00:14:29;20.50;95.40
44731;DHT22;30458;47.448;19.032;2023-07-09T00:24:33;20.90;95.00
44731;DHT22;30458;47.448;19.032;2023-07-09T00:34:35;21.20;94.30
44731;DHT22;30458;47.448;19.032;2023-07-09T00:44:36;20.90;94.60
44731;DHT22;30458;47.448;19.032;2023-07-09T00:54:40;20.60;95.30
44731;DHT22;30458;47.448;19.032;2023-07-09T01:04:42;20.60;95.20
44731;DHT22;30458;47.448;19.032;2023-07-09T01:14:43;20.50;95.40
44731;DHT22;30458;47.448;19.032;2023-07-09T01:34:51;20.20;95.60
44731;DHT22;30458;47.448;19.032;2023-07-09T01:44:53;20.20;95.70
44731;DHT22;30458;47.448;19.032;2023-07-09T01:54:55;20.00;95.90
44731;DHT22;30458;47.448;19.032;2023-07-09T02:05:01;20.10;95.90
44731;DHT22;30458;47.448;19.032;2023-07-09T02:15:02;20.00;95.90
44731;DHT22;30458;47.448;19.032;2023-07-09T02:25:10;19.90;96.00
44731;DHT22;30458;47.448;19.032;2023-07-09T02:35:13;19.90;96.10
44731;DHT22;30458;47.448;19.032;2023-07-09T02:45:15;19.90;96.20
44731;DHT22;30458;47.448;19.032;2023-07-09T02:55:16;19.90;96.20
44731;DHT22;30458;47.448;19.032;2023-07-09T03:05:17;19.70;96.50
44731;DHT22;30458;47.448;19.032;2023-07-09T03:15:18;19.50;96.90
44731;DHT22;30458;47.448;19.032;2023-07-09T03:25:19;19.40;97.10
44731;DHT22;30458;47.448;19.032;2023-07-09T03:35:20;19.60;97.10
44731;DHT22;30458;47.448;19.032;2023-07-09T03:45:23;19.30;97.30
44731;DHT22;30458;47.448;19.032;2023-07-09T03:55:24;19.20;97.20
44731;DHT22;30458;47.448;19.032;2023-07-09T04:05:30;19.20;97.40
44731;DHT22;30458;47.448;19.032;2023-07-09T04:15:31;19.30;97.40
44731;DHT22;30458;47.448;19.032;2023-07-09T04:25:34;19.70;96.90
44731;DHT22;30458;47.448;19.032;2023-07-09T04:35:37;20.50;96.30
44731;DHT22;30458;47.448;19.032;2023-07-09T04:45:40;21.40;94.70
44731;DHT22;30458;47.448;19.032;2023-07-09T04:55:43;21.90;94.50
44731;DHT22;30458;47.448;19.032;2023-07-09T05:05:46;22.70;93.60
44731;DHT22;30458;47.448;19.032;2023-07-09T05:15:47;23.50;92.90
44731;DHT22;30458;47.448;19.032;2023-07-09T05:26:01;25.90;91.10
44731;DHT22;30458;47.448;19.032;2023-07-09T05:36:02;27.20;87.60
44731;DHT22;30458;47.448;19.032;2023-07-09T05:46:05;27.80;86.50
44731;DHT22;30458;47.448;19.032;2023-07-09T05:56:08;28.40;84.50
44731;DHT22;30458;47.448;19.032;2023-07-09T06:06:09;29.10;84.10
44731;DHT22;30458;47.448;19.032;2023-07-09T06:16:12;30.00;84.00
44731;DHT22;30458;47.448;19.032;2023-07-09T06:26:15;30.90;81.20
44731;DHT22;30458;47.448;19.032;2023-07-09T06:36:19;31.10;80.30
44731;DHT22;30458;47.448;19.032;2023-07-09T06:46:23;31.40;80.60
44731;DHT22;30458;47.448;19.032;2023-07-09T06:56:30;32.10;77.00
44731;DHT22;30458;47.448;19.032;2023-07-09T07:06:31;32.20;75.00
44731;DHT22;30458;47.448;19.032;2023-07-09T07:16:34;32.90;74.40
44731;DHT22;30458;47.448;19.032;2023-07-09T07:26:35;33.30;73.00
44731;DHT22;30458;47.448;19.032;2023-07-09T07:36:36;33.60;72.40
44731;DHT22;30458;47.448;19.032;2023-07-09T07:46:39;33.80;71.90
44731;DHT22;30458;47.448;19.032;2023-07-09T07:56:40;33.90;71.30
44731;DHT22;30458;47.448;19.032;2023-07-09T08:06:40;33.60;68.20
44731;DHT22;30458;47.448;19.032;2023-07-09T08:16:41;33.00;69.20
44731;DHT22;30458;47.448;19.032;2023-07-09T08:26:42;32.90;67.90
44731;DHT22;30458;47.448;19.032;2023-07-09T08:36:43;32.50;69.70
44731;DHT22;30458;47.448;19.032;2023-07-09T08:57:23;32.80;68.00
44731;DHT22;30458;47.448;19.032;2023-07-09T09:07:38;32.20;65.30
44731;DHT22;30458;47.448;19.032;2023-07-09T09:17:40;31.80;64.20
44731;DHT22;30458;47.448;19.032;2023-07-09T09:27:43;31.60;65.20
44731;DHT22;30458;47.448;19.032;2023-07-09T09:37:51;31.60;66.40
44731;DHT22;30458;47.448;19.032;2023-07-09T09:47:52;31.60;68.50
44731;DHT22;30458;47.448;19.032;2023-07-09T09:57:57;31.50;68.00
44731;DHT22;30458;47.448;19.032;2023-07-09T10:49:15;31.60;67.20
44731;DHT22;30458;47.448;19.032;2023-07-09T10:59:26;31.80;65.50
44731;DHT22;30458;47.448;19.032;2023-07-09T11:09:34;31.60;65.10
44731;DHT22;30458;47.448;19.032;2023-07-09T11:19:42;31.60;67.80
44731;DHT22;30458;47.448;19.032;2023-07-09T11:40:46;31.70;65.90
44731;DHT22;30458;47.448;19.032;2023-07-09T11:50:51;31.20;66.30
44731;DHT22;30458;47.448;19.032;2023-07-09T12:00:55;31.10;67.60
44731;DHT22;30458;47.448;19.032;2023-07-09T12:10:57;31.30;67.10
44731;DHT22;30458;47.448;19.032;2023-07-09T12:21:00;31.10;66.00
44731;DHT22;30458;47.448;19.032;2023-07-09T12:31:01;30.90;64.70
44731;DHT22;30458;47.448;19.032;2023-07-09T12:41:04;30.80;64.50
44731;DHT22;30458;47.448;19.032;2023-07-09T12:51:08;31.00;66.30
44731;DHT22;30458;47.448;19.032;2023-07-09T13:01:15;31.30;66.00
44731;DHT22;30458;47.448;19.032;2023-07-09T13:11:17;31.30;67.00
44731;DHT22;30458;47.448;19.032;2023-07-09T13:21:22;31.30;64.30
44731;DHT22;30458;47.448;19.032;2023-07-09T13:31:26;31.10;63.80
44731;DHT22;30458;47.448;19.032;2023-07-09T13:41:29;31.30;66.10
44731;DHT22;30458;47.448;19.032;2023-07-09T13:51:33;31.40;64.80
44731;DHT22;30458;47.448;19.032;2023-07-09T14:01:36;31.50;64.90
44731;DHT22;30458;47.448;19.032;2023-07-09T14:11:43;31.50;65.80
44731;DHT22;30458;47.448;19.032;2023-07-09T14:21:46;31.60;66.20
44731;DHT22;30458;47.448;19.032;2023-07-09T14:31:48;31.50;65.60
44731;DHT22;30458;47.448;19.032;2023-07-09T14:41:49;31.60;64.70
44731;DHT22;30458;47.448;19.032;2023-07-09T14:51:50;31.50;64.00
44731;DHT22;30458;47.448;19.032;2023-07-09T15:01:52;31.50;64.40
44731;DHT22;30458;47.448;19.032;2023-07-09T15:11:58;31.50;65.20
44731;DHT22;30458;47.448;19.032;2023-07-09T15:22:02;31.50;63.90
44731;DHT22;30458;47.448;19.032;2023-07-09T15:32:03;31.50;64.50
44731;DHT22;30458;47.448;19.032;2023-07-09T15:42:12;31.50;64.00
44731;DHT22;30458;47.448;19.032;2023-07-09T15:52:13;31.40;64.40
44731;DHT22;30458;47.448;19.032;2023-07-09T16:02:14;31.30;65.50
44731;DHT22;30458;47.448;19.032;2023-07-09T16:12:15;31.20;64.90
44731;DHT22;30458;47.448;19.032;2023-07-09T16:22:18;31.10;66.40
44731;DHT22;30458;47.448;19.032;2023-07-09T16:32:20;31.10;65.50
44731;DHT22;30458;47.448;19.032;2023-07-09T16:42:21;31.00;66.70
44731;DHT22;30458;47.448;19.032;2023-07-09T16:52:23;30.90;66.30
44731;DHT22;30458;47.448;19.032;2023-07-09T17:02:31;30.80;66.70
44731;DHT22;30458;47.448;19.032;2023-07-09T17:12:32;30.60;66.30
44731;DHT22;30458;47.448;19.032;2023-07-09T17:22:34;31.40;66.30
44731;DHT22;30458;47.448;19.032;2023-07-09T17:32:35;31.60;67.00
44731;DHT22;30458;47.448;19.032;2023-07-09T17:42:39;31.60;66.20
44731;DHT22;30458;47.448;19.032;2023-07-09T17:52:42;31.50;67.70
44731;DHT22;30458;47.448;19.032;2023-07-09T18:02:45;31.50;68.70
44731;DHT22;30458;47.448;19.032;2023-07-09T18:12:50;31.20;69.00
44731;DHT22;30458;47.448;19.032;2023-07-09T18:22:56;30.80;69.10
44731;DHT22;30458;47.448;19.032;2023-07-09T18:33:00;29.90;71.30
44731;DHT22;30458;47.448;19.032;2023-07-09T18:43:01;29.50;72.90
44731;DHT22;30458;47.448;19.032;2023-07-09T18:53:01;29.00;72.90
44731;DHT22;30458;47.448;19.032;2023-07-09T19:03:03;28.60;73.90
44731;DHT22;30458;47.448;19.032;2023-07-09T19:13:07;28.30;74.60
44731;DHT22;30458;47.448;19.032;2023-07-09T19:23:13;28.10;75.80
44731;DHT22;30458;47.448;19.032;2023-07-09T19:33:25;27.70;77.00
44731;DHT22;30458;47.448;19.032;2023-07-09T19:43:30;27.60;76.30
44731;DHT22;30458;47.448;19.032;2023-07-09T19:53:31;27.50;75.90
44731;DHT22;30458;47.448;19.032;2023-07-09T20:03:37;27.20;76.50
44731;DHT22;30458;47.448;19.032;2023-07-09T20:13:39;27.00;76.70
44731;DHT22;30458;47.448;19.032;2023-07-09T20:23:43;27.30;78.40
44731;DHT22;30458;47.448;19.032;2023-07-09T20:34:16;26.80;77.30
44731;DHT22;30458;47.448;19.032;2023-07-09T20:44:20;26.50;75.90
44731;DHT22;30458;47.448;19.032;2023-07-09T20:54:21;26.40;76.60
44731;DHT22;30458;47.448;19.032;2023-07-09T21:04:22;26.60;77.60
44731;DHT22;30458;47.448;19.032;2023-07-09T21:14:23;26.60;77.80
44731;DHT22;30458;47.448;19.032;2023-07-09T21:24:38;26.50;78.40
44731;DHT22;30458;47.448;19.032;2023-07-09T21:34:39;26.20;79.70
44731;DHT22;30458;47.448;19.032;2023-07-09T21:44:40;26.10;79.70
44731;DHT22;30458;47.448;19.032;2023-07-09T21:54:41;26.20;79.10
44731;DHT22;30458;47.448;19.032;2023-07-09T22:04:48;26.20;79.40
44731;DHT22;30458;47.448;19.032;2023-07-09T22:15:09;26.10;79.90
44731;DHT22;30458;47.448;19.032;2023-07-09T22:25:19;26.10;80.00
44731;DHT22;30458;47.448;19.032;2023-07-09T22:35:23;26.10;80.00
44731;DHT22;30458;47.448;19.032;2023-07-09T22:45:27;26.00;80.80
44731;DHT22;30458;47.448;19.032;2023-07-09T22:55:36;25.80;80.60
44731;DHT22;30458;47.448;19.032;2023-07-09T23:05:40;25.50;82.10
44731;DHT22;30458;47.448;19.032;2023-07-09T23:15:44;25.30;82.60
44731;DHT22;30458;47.448;19.032;2023-07-09T23:25:45;25.20;83.20
44731;DHT22;30458;47.448;19.032;2023-07-09T23:35:47;25.00;83.60
44731;DHT22;30458;47.448;19.032;2023-07-09T23:45:50;25.00;84.10
44731;DHT22;30458;47.448;19.032;2023-07-09T23:55:52;24.90;84.30
